Terminal Aerodrome Forecast
Issued by NWS Quad Cities IA IL

Home | Current Version | Previous Version | Text Only | Print | Product List | Glossary On
Versions: 1 2 3 4 5 6 7 8 9 10 11 12 13 14 15 16 17 18 19 20
000
FTUS43 KDVN 300500
TAFMLI
TAF
KMLI 300520Z 3006/3106 16005KT P6SM FEW050 BKN250
     FM300700 20005KT P6SM VCTS SCT012CB BKN030
      TEMPO 3007/3010 1SM TSRA BKN009CB OVC015
     FM301000 23004KT 5SM BR SCT009 OVC030
     FM301300 28006KT 6SM BR BKN025
     FM301500 28007KT P6SM SCT035
     FM302300 24003KT P6SM SKC=

USA.gov is the U.S. government's official web portal to all federal, state and local government web resources and services.